Gleeson, Arizona
Current Conditions -  °F | °C
As of 2:56 PM on Monday 20 Oct 2014 (Local Time) from KDUG Reporting Station
Broken Clouds Broken Clouds  
Wind Chill: 74°   Ceiling: 6000
Heat Index: 74°   Visibility: 10mi
Dew Point: 48°   Wind: 7mph
Humidity: 40%   Direction: 350°N
Pressure: 29.97"   Gusts: NA
Location:  31.7341°N, 109.494°W
Report Text: KDUG 202156Z AUTO 35006KT 10SM BKN060 23/09 A2997 RMK AO2 LTG DSNT SE SLP098 T02330089
Loading
Personal Weather Stations






























Interactive Weather Map
Tropical Storm Tracking
New forecast layout! Learn more

10-Day Weather Forecast

Advertisements
Track Severe Weather on mobile